createdAt,value
2023-05-17T00:02:01.297Z,100192.28
2023-05-17T00:07:03.364Z,100204.56
2023-05-17T00:12:05.316Z,100211.53
2023-05-17T00:17:06.758Z,100214.13
2023-05-17T00:22:08.375Z,100212.03
2023-05-17T00:27:10.196Z,100211.00
2023-05-17T00:32:11.712Z,100213.41
2023-05-17T00:37:13.193Z,100206.88
2023-05-17T00:42:14.811Z,100219.72
2023-05-17T00:47:16.292Z,100219.94
2023-05-17T00:52:17.853Z,100211.22
2023-05-17T00:57:19.369Z,100215.53
2023-05-17T01:02:20.847Z,100220.69
2023-05-17T01:07:22.336Z,100215.66
2023-05-17T01:12:39.076Z,100205.72
2023-05-17T01:18:11.802Z,100203.47
2023-05-17T01:23:42.152Z,100212.81
2023-05-17T01:28:53.848Z,100210.00
2023-05-17T01:33:58.017Z,100220.22
2023-05-17T01:39:00.543Z,100212.59
2023-05-17T01:44:11.056Z,100225.34
2023-05-17T01:49:21.720Z,100227.59
2023-05-17T01:54:38.185Z,100225.38
2023-05-17T01:59:41.988Z,100220.47
2023-05-17T02:04:43.546Z,100221.94
2023-05-17T02:09:45.402Z,100233.84
2023-05-17T02:14:46.961Z,100239.88
2023-05-17T02:19:48.443Z,100243.56
2023-05-17T02:24:49.938Z,100237.16
2023-05-17T02:29:51.416Z,100231.53
2023-05-17T02:34:52.881Z,100234.09
2023-05-17T02:39:54.380Z,100245.03
2023-05-17T02:44:57.928Z,100237.44
2023-05-17T02:49:59.428Z,100241.72
2023-05-17T02:55:01.019Z,100238.63
2023-05-17T03:00:03.407Z,100250.19
2023-05-17T03:05:05.142Z,100256.22
2023-05-17T03:10:07.460Z,100270.31
2023-05-17T03:15:09.193Z,100272.91
2023-05-17T03:20:10.978Z,100279.25
2023-05-17T03:25:12.482Z,100288.50
2023-05-17T03:30:14.207Z,100286.66
2023-05-17T03:35:15.792Z,100297.78
2023-05-17T03:40:17.330Z,100303.59
2023-05-17T03:45:18.851Z,100296.53
2023-05-17T03:50:20.601Z,100311.16
2023-05-17T03:55:22.257Z,100309.06
2023-05-17T04:00:24.635Z,100313.03
2023-05-17T04:05:26.873Z,100312.94
2023-05-17T04:10:28.677Z,100327.16
2023-05-17T04:15:30.315Z,100334.13
2023-05-17T04:20:31.895Z,100328.69
2023-05-17T04:25:33.374Z,100344.66
2023-05-17T04:30:34.866Z,100350.28
2023-05-17T04:35:38.529Z,100353.97
2023-05-17T04:40:40.786Z,100363.25
2023-05-17T04:45:42.254Z,100371.19
2023-05-17T04:50:46.296Z,100371.88
2023-05-17T04:55:50.802Z,100382.44
2023-05-17T05:00:52.863Z,100362.38
2023-05-17T05:05:54.371Z,100369.19
2023-05-17T05:10:55.957Z,100360.56
2023-05-17T05:15:57.465Z,100371.47
2023-05-17T05:20:59.341Z,100378.41
2023-05-17T05:26:00.943Z,100390.50
2023-05-17T05:31:02.483Z,100381.69
2023-05-17T05:36:04.269Z,100396.34
2023-05-17T05:41:05.771Z,100399.41
2023-05-17T05:46:08.053Z,100413.38
2023-05-17T05:51:09.679Z,100424.13
2023-05-17T05:56:11.187Z,100420.81
2023-05-17T06:01:12.943Z,100425.50
2023-05-17T06:06:16.680Z,100430.91
2023-05-17T06:11:18.785Z,100436.91
2023-05-17T06:16:20.240Z,100449.94
2023-05-17T06:21:22.026Z,100441.47
2023-05-17T06:26:23.856Z,100441.69
2023-05-17T06:31:25.385Z,100443.91
2023-05-17T06:36:26.933Z,100451.06
2023-05-17T06:41:28.518Z,100464.72
2023-05-17T06:46:29.994Z,100488.16
2023-05-17T06:51:31.588Z,100484.13
2023-05-17T06:56:33.036Z,100500.03
2023-05-17T07:01:34.736Z,100508.59
2023-05-17T07:06:36.241Z,100507.16
2023-05-17T07:11:37.776Z,100502.72
2023-05-17T07:16:39.302Z,100506.66
2023-05-17T07:21:41.713Z,100503.22
2023-05-17T07:26:43.230Z,100510.97
2023-05-17T07:31:44.701Z,100510.84
2023-05-17T07:36:46.147Z,100505.69
2023-05-17T07:41:47.683Z,100528.75
2023-05-17T07:46:49.343Z,100535.44
2023-05-17T07:51:51.299Z,100534.09
2023-05-17T07:56:57.170Z,100537.53
2023-05-17T08:01:58.616Z,100540.13
2023-05-17T08:07:00.982Z,100537.44
2023-05-17T08:12:02.600Z,100523.75
2023-05-17T08:17:04.416Z,100530.06
2023-05-17T08:22:05.905Z,100529.00
2023-05-17T08:27:07.403Z,100527.06
2023-05-17T08:32:08.901Z,100527.91
2023-05-17T08:37:10.453Z,100538.03
2023-05-17T08:42:12.953Z,100523.38
2023-05-17T08:47:25.965Z,100539.00
2023-05-17T08:52:32.266Z,100537.19
2023-05-17T08:57:37.672Z,100531.75
2023-05-17T09:02:40.462Z,100548.75
2023-05-17T09:07:42.918Z,100532.50
2023-05-17T09:12:44.939Z,100534.28
2023-05-17T09:17:56.917Z,100533.41
2023-05-17T09:22:59.337Z,100550.88
2023-05-17T09:28:02.369Z,100550.78
2023-05-17T09:33:12.382Z,100538.34
2023-05-17T09:38:16.116Z,100548.13
2023-05-17T09:43:24.262Z,100538.19
2023-05-17T09:48:30.163Z,100546.03
2023-05-17T09:53:33.351Z,100548.75
2023-05-17T09:58:37.395Z,100547.16
2023-05-17T10:03:39.221Z,100554.59
2023-05-17T10:08:46.282Z,100564.03
2023-05-17T10:14:07.714Z,100559.94
2023-05-17T10:19:11.561Z,100560.50
2023-05-17T10:24:13.838Z,100570.56
2023-05-17T10:29:16.970Z,100572.16
2023-05-17T10:34:19.916Z,100571.19
2023-05-17T10:39:22.196Z,100588.41
2023-05-17T10:44:24.742Z,100582.44
2023-05-17T10:49:34.052Z,100574.78
2023-05-17T10:54:36.927Z,100572.47
2023-05-17T10:59:56.724Z,100575.16
2023-05-17T11:05:00.505Z,100574.09
2023-05-17T11:10:07.984Z,100585.63
2023-05-17T11:15:14.220Z,100573.94
2023-05-17T11:20:16.767Z,100580.84
2023-05-17T11:25:19.359Z,100575.16
2023-05-17T11:30:28.874Z,100570.31
2023-05-17T11:35:35.334Z,100567.31
2023-05-17T11:40:37.334Z,100568.38
2023-05-17T11:46:06.808Z,100571.19
2023-05-17T11:51:08.350Z,100566.06
2023-05-17T11:56:11.477Z,100562.59
2023-05-17T12:01:13.027Z,100578.22
2023-05-17T12:06:17.470Z,100555.66
2023-05-17T12:11:19.238Z,100571.94
2023-05-17T12:16:24.558Z,100567.81
2023-05-17T12:21:26.123Z,100569.69
2023-05-17T12:26:27.588Z,100586.03
2023-05-17T12:31:38.393Z,100580.47
2023-05-17T12:36:40.577Z,100589.75
2023-05-17T12:41:43.100Z,100595.34
2023-05-17T12:46:45.181Z,100601.19
2023-05-17T12:51:47.390Z,100591.75
2023-05-17T12:56:48.899Z,100592.25
2023-05-17T13:01:55.824Z,100596.53
2023-05-17T13:07:02.255Z,100598.72
2023-05-17T13:12:07.763Z,100605.19
2023-05-17T13:17:11.157Z,100606.34
2023-05-17T13:22:12.663Z,100610.63
2023-05-17T13:27:14.462Z,100613.34
2023-05-17T13:32:15.993Z,100625.88
2023-05-17T13:37:17.583Z,100632.44
2023-05-17T13:42:19.076Z,100636.91
2023-05-17T13:47:20.736Z,100635.38
2023-05-17T13:52:23.167Z,100649.13
2023-05-17T13:57:24.672Z,100652.13
2023-05-17T14:02:26.539Z,100659.44
2023-05-17T14:07:28.624Z,100660.94
2023-05-17T14:12:30.106Z,100668.25
2023-05-17T14:17:33.166Z,100680.06
2023-05-17T14:22:34.695Z,100680.72
2023-05-17T14:27:36.156Z,100678.69
2023-05-17T14:32:39.117Z,100680.72
2023-05-17T14:37:40.726Z,100675.50
2023-05-17T14:42:43.236Z,100684.44
2023-05-17T14:47:45.071Z,100685.41
2023-05-17T14:52:46.627Z,100692.13
2023-05-17T14:57:48.106Z,100686.66
2023-05-17T15:02:50.245Z,100690.41
2023-05-17T15:07:52.650Z,100698.13
2023-05-17T15:12:54.098Z,100699.00
2023-05-17T15:17:55.651Z,100705.38
2023-05-17T15:22:57.138Z,100715.78
2023-05-17T15:27:58.814Z,100712.53
2023-05-17T15:33:01.366Z,100708.03
2023-05-17T15:38:07.368Z,100719.63
2023-05-17T15:43:08.834Z,100716.50
2023-05-17T15:48:11.419Z,100723.41
2023-05-17T15:53:13.154Z,100710.81
2023-05-17T15:58:14.732Z,100716.50
2023-05-17T16:03:16.387Z,100731.56
2023-05-17T16:08:17.818Z,100738.19
2023-05-17T16:13:19.308Z,100733.88
2023-05-17T16:18:20.983Z,100734.16
2023-05-17T16:23:22.515Z,100748.19
2023-05-17T16:28:24.298Z,100755.09
2023-05-17T16:33:26.631Z,100761.41
2023-05-17T16:38:28.361Z,100765.44
2023-05-17T16:43:30.958Z,100761.28
2023-05-17T16:48:32.447Z,100763.03
2023-05-17T16:53:33.909Z,100775.00
2023-05-17T16:58:35.397Z,100773.13
2023-05-17T17:03:36.955Z,100776.34
2023-05-17T17:08:38.722Z,100770.66
2023-05-17T17:13:40.503Z,100777.47
2023-05-17T17:18:42.026Z,100779.31
2023-05-17T17:23:44.467Z,100784.38
2023-05-17T17:28:46.021Z,100782.28
2023-05-17T17:33:47.477Z,100782.53
2023-05-17T17:38:48.940Z,100786.25
2023-05-17T17:43:50.394Z,100796.38
2023-05-17T17:48:52.370Z,100799.31
2023-05-17T17:53:55.445Z,100805.72
2023-05-17T17:58:57.168Z,100826.31
2023-05-17T18:03:59.133Z,100810.28
2023-05-17T18:09:00.629Z,100817.44
2023-05-17T18:14:06.190Z,100824.22
2023-05-17T18:19:07.761Z,100822.72
2023-05-17T18:24:09.397Z,100831.31
2023-05-17T18:29:10.969Z,100843.66
2023-05-17T18:34:12.432Z,100854.72
2023-05-17T18:39:13.913Z,100861.16
2023-05-17T18:44:16.200Z,100853.75
2023-05-17T18:49:18.404Z,100868.53
2023-05-17T18:54:19.865Z,100881.31
2023-05-17T18:59:21.330Z,100901.09
2023-05-17T19:04:22.868Z,100899.00
2023-05-17T19:09:24.341Z,100896.22
2023-05-17T19:14:25.878Z,100898.19
2023-05-17T19:19:27.418Z,100897.44
2023-05-17T19:24:28.917Z,100910.31
2023-05-17T19:29:32.613Z,100907.28
2023-05-17T19:34:34.140Z,100906.03
2023-05-17T19:39:36.351Z,100893.00
2023-05-17T19:44:38.364Z,100890.56
2023-05-17T19:49:39.902Z,100896.22
2023-05-17T19:54:41.404Z,100894.78
2023-05-17T19:59:42.880Z,100892.28
2023-05-17T20:04:44.345Z,100899.47
2023-05-17T20:09:45.874Z,100892.91
2023-05-17T20:14:47.445Z,100899.69
2023-05-17T20:19:48.900Z,100897.25
2023-05-17T20:24:50.655Z,100902.41
2023-05-17T20:29:52.139Z,100918.75
2023-05-17T20:34:53.668Z,100921.41
2023-05-17T20:39:59.903Z,100922.28
2023-05-17T20:45:01.412Z,100923.25
2023-05-17T20:50:04.047Z,100935.31
2023-05-17T20:55:10.336Z,100947.22
2023-05-17T21:00:12.208Z,100944.88
2023-05-17T21:05:13.794Z,100955.53
2023-05-17T21:10:15.361Z,100947.31
2023-05-17T21:15:19.699Z,100947.81
2023-05-17T21:20:22.302Z,100940.88
2023-05-17T21:25:26.057Z,100928.31
2023-05-17T21:30:27.606Z,100930.47
2023-05-17T21:35:29.225Z,100930.69
2023-05-17T21:40:31.178Z,100937.72
2023-05-17T21:45:33.849Z,100938.47
2023-05-17T21:50:35.307Z,100944.97
2023-05-17T21:55:51.291Z,100947.81
2023-05-17T22:00:58.514Z,100951.06
2023-05-17T22:06:01.416Z,100944.09
2023-05-17T22:11:03.757Z,100955.81
2023-05-17T22:16:06.168Z,100949.88
2023-05-17T22:21:08.794Z,100942.81
2023-05-17T22:26:10.602Z,100943.28
2023-05-17T22:31:14.611Z,100954.00
2023-05-17T22:36:17.845Z,100958.84
2023-05-17T22:41:19.318Z,100955.63
2023-05-17T22:46:20.882Z,100963.19
2023-05-17T22:51:22.532Z,100979.22
2023-05-17T22:56:24.425Z,100979.66
2023-05-17T23:01:26.081Z,100979.84
2023-05-17T23:06:27.642Z,100985.66
2023-05-17T23:11:29.834Z,100994.31
2023-05-17T23:16:31.385Z,101000.38
2023-05-17T23:21:33.247Z,100992.78
2023-05-17T23:26:35.152Z,100995.06
2023-05-17T23:31:37.592Z,100998.63
2023-05-17T23:36:39.345Z,100992.13
2023-05-17T23:41:41.035Z,100998.59
2023-05-17T23:46:44.596Z,100999.00
2023-05-17T23:51:46.538Z,100991.88
2023-05-17T23:56:48.117Z,100997.50
